ADDS METAR Data INFO
IDs: Format: Raw Decoded Include TAF

Data at: 2259 UTC 21 Feb 2018

KCNC 212255Z AUTO 04011KT 10SM FEW018 M04/M06 A3057 RMK AO2
KCNC 212235Z AUTO 03010KT 10SM FEW018 M04/M06 A3057 RMK AO2
KCNC 212215Z AUTO 05012KT 10SM FEW018 M03/M07 A3057 RMK AO2
KCNC 212155Z AUTO 05011KT 10SM SCT019 M03/M06 A3057 RMK AO2
KCNC 212135Z AUTO 04010KT 10SM SCT019 M04/M07 A3057 RMK AO2
KCNC 212115Z AUTO 03010KT 10SM SCT018 M04/M07 A3057 RMK AO2
KCNC 212055Z AUTO 04008KT 10SM BKN018 M03/M06 A3057 RMK AO2
KCNC 212035Z AUTO 03009KT 10SM FEW018 M04/M07 A3056 RMK AO2
KCNC 212015Z AUTO 02011KT 10SM FEW018 M04/M07 A3057 RMK AO2
KCNC 211955Z AUTO 03010KT 10SM CLR M04/M07 A3058 RMK AO2
KCNC 211935Z AUTO 03011KT 10SM CLR M05/M08 A3058 RMK AO2
KCNC 211915Z AUTO 01008KT 10SM CLR M05/M08 A3060 RMK AO2
KCNC 211855Z AUTO 02008KT 10SM FEW017 M06/M08 A3060 RMK AO2
KCNC 211835Z AUTO 36007KT 10SM FEW017 M06/M09 A3062 RMK AO2
KCNC 211815Z AUTO 03008KT 10SM FEW016 M06/M09 A3062 RMK AO2
KCNC 211755Z AUTO 01006KT 10SM CLR M07/M09 A3062 RMK AO2
KCNC 211735Z AUTO 01008KT 10SM CLR M07/M10 A3062 RMK AO2
KCNC 211715Z AUTO 02009KT 10SM CLR M08/M10 A3063 RMK AO2
KCNC 211655Z AUTO 01009KT 10SM CLR M08/M11 A3062 RMK AO2
KCNC 211635Z AUTO 01011KT 10SM CLR M08/M11 A3061 RMK AO2
KCNC 211615Z AUTO 36012KT 10SM CLR M09/M12 A3060 RMK AO2
KCNC 211555Z AUTO 36011KT 10SM CLR M09/M12 A3060 RMK AO2
KCNC 211535Z AUTO 36012KT 10SM CLR M09/M12 A3061 RMK AO2
KCNC 211515Z AUTO 01012KT 10SM CLR M10/M13 A3061 RMK AO2
KCNC 211455Z AUTO 35012KT 10SM CLR M10/M12 A3060 RMK AO2
KCNC 211435Z AUTO 35013KT 10SM CLR M10/M12 A3058 RMK AO2
KCNC 211415Z AUTO 36011G16KT 10SM CLR M10/M13 A3058 RMK AO2
KCNC 211355Z AUTO 34012KT 10SM CLR M10/M13 A3059 RMK AO2
KCNC 211335Z AUTO 34010KT 10SM CLR M11/M13 A3058 RMK AO2
KCNC 211315Z AUTO 35010KT 10SM CLR M11/M13 A3057 RMK AO2
KCNC 211255Z AUTO 34011KT 10SM CLR M11/M13 A3056 RMK AO2
KCNC 211235Z AUTO 34011KT 10SM CLR M11/M13 A3056 RMK AO2
KCNC 210755Z AUTO 33014KT 10SM CLR M09/M11 A3043 RMK AO2
KCNC 210735Z AUTO 33014KT 10SM FEW013 FEW018 M09/M11 A3042 RMK AO2
KCNC 210715Z AUTO 33012G19KT 10SM SCT013 M09/M11 A3041 RMK AO2
KCNC 210655Z AUTO 34013KT 10SM BKN015 M09/M10 A3039 RMK AO2
KCNC 210635Z AUTO 33016KT 10SM SCT016 SCT024 M08/M10 A3038 RMK AO2
KCNC 210615Z AUTO 33012G19KT 10SM BKN017 BKN024 M08/M10 A3038 RMK AO2
KCNC 210555Z AUTO 32011G17KT 10SM BKN017 M08/M10 A3036 RMK AO2
KCNC 201515Z AUTO 33011KT 4SM RA OVC007 M02/M02 A2992 RMK AO2
KCNC 201455Z AUTO 29012KT 7SM -RA OVC006 M02/M02 A2996 RMK AO2 P0001
KCNC 201435Z AUTO 32011KT 9SM -RA OVC006 M02/M02 A2990 RMK AO2
KCNC 201415Z AUTO 32012KT 6SM BR OVC005 M01/M01 A2990 RMK AO2
KCNC 201355Z AUTO 30009G16KT 3SM -RA OVC005 M01/M01 A2989 RMK AO2 P0009
KCNC 201335Z AUTO 30008KT 2 1/2SM -RA OVC006 M01/M01 A2989 RMK AO2
KCNC 201315Z AUTO 31010KT 5SM BR OVC006 M01/M02 A2986 RMK AO2
KCNC 201255Z AUTO 30007KT 10SM OVC007 M01/M02 A2986 RMK AO2
KCNC 201235Z AUTO 31006KT 10SM OVC006 M02/M02 A2984 RMK AO2
KCNC 201215Z AUTO 31006KT 7SM OVC006 M02/M02 A2984 RMK AO2
KCNC 201155Z AUTO 32007G12KT 6SM -UP BKN006 OVC010 M01/M02 A2983 RMK AO2
KCNC 201135Z AUTO 31011KT 6SM BR BKN007 BKN012 OVC018 M01/M02 A2984 RMK AO2
KCNC 201115Z AUTO 30010G15KT 10SM BKN006 BKN010 OVC017 M01/M01 A2985 RMK AO2